< < Back
Terminal Aerodrome Forecast


Current Version              Previous Versions:   1  2  3  4  5  6  7  8  9  

Terminal Aerodrome Forecast

243
FTUS44 KHUN 281916 AAA
TAFHSV
TAF AMD
KHSV 281916Z 2819/2918 22010G18KT P6SM -RA BKN015 OVC025
      TEMPO 2819/2821 3SM TSRA BKN008 BKN025CB
     FM282100 24007KT P6SM VCSH BKN025 OVC040
     FM282300 24005KT P6SM BKN015 OVC025
     FM290500 24005KT 5SM BR VCSH BKN008 OVC015
     FM291400 25005KT P6SM BKN015=



Latest METAR

546
SAUS80 KWBC 282000 RRA
MTRHSV
METAR KHSV 281953Z 23007KT 4SM RA BR FEW010 FEW045 OVC100 24/22 A2996
RMK AO2 SLP138 P0014 T02440222 $


USA.gov is the U.S. government's official web portal to all federal, state and local government web resources and services.